createdAt,value
2019-01-16T00:02:24.206Z,100697.91
2019-01-16T00:05:11.600Z,100703.15
2019-01-16T00:13:23.893Z,100698.77
2019-01-16T00:16:11.589Z,100699.33
2019-01-16T00:18:59.273Z,100700.38
2019-01-16T00:22:06.335Z,100694.31
2019-01-16T00:24:53.765Z,100694.80
2019-01-16T00:27:41.178Z,100685.48
2019-01-16T00:30:49.535Z,100682.27
2019-01-16T00:33:36.951Z,100684.17
2019-01-16T00:36:46.714Z,100678.82
2019-01-16T00:42:44.031Z,100669.16
2019-01-16T00:48:24.636Z,100661.79
2019-01-16T00:51:11.822Z,100660.81
2019-01-16T00:54:18.545Z,100663.66
2019-01-16T00:57:05.971Z,100661.88
2019-01-16T00:59:53.379Z,100657.11
2019-01-16T01:02:40.807Z,100657.94
2019-01-16T01:05:49.163Z,100648.42
2019-01-16T01:08:36.836Z,100652.13
2019-01-16T01:11:24.602Z,100648.20
2019-01-16T01:14:12.096Z,100640.42
2019-01-16T01:16:59.791Z,100645.17
2019-01-16T01:19:47.239Z,100640.91
2019-01-16T01:22:34.637Z,100642.55
2019-01-16T01:33:25.793Z,100634.58
2019-01-16T01:36:13.232Z,100632.81
2019-01-16T01:41:49.612Z,100642.70
2019-01-16T01:44:37.022Z,100642.14
2019-01-16T01:50:00.007Z,100640.75
2019-01-16T01:52:47.435Z,100632.81
2019-01-16T01:58:44.743Z,100634.68
2019-01-16T02:01:51.775Z,100640.12
2019-01-16T02:04:39.213Z,100636.07
2019-01-16T02:07:26.628Z,100632.25
2019-01-16T02:10:14.069Z,100645.50
2019-01-16T02:13:01.492Z,100629.89
2019-01-16T02:15:48.931Z,100630.95
2019-01-16T02:18:36.591Z,100630.95
2019-01-16T02:21:44.961Z,100629.38
2019-01-16T02:24:32.377Z,100631.17
2019-01-16T02:29:58.846Z,100636.67
2019-01-16T02:35:46.538Z,100634.53
2019-01-16T02:38:33.985Z,100625.62
2019-01-16T02:41:10.009Z,100621.70
2019-01-16T02:43:51.824Z,100627.02
2019-01-16T02:46:21.760Z,100625.11
2019-01-16T02:48:56.052Z,100620.73
2019-01-16T02:51:31.940Z,100623.23
2019-01-16T02:54:01.891Z,100618.11
2019-01-16T02:56:32.069Z,100616.80
2019-01-16T02:59:04.786Z,100612.75
2019-01-16T03:01:40.410Z,100605.72
2019-01-16T03:04:25.231Z,100603.44
2019-01-16T03:07:00.856Z,100597.03
2019-01-16T03:09:39.311Z,100596.63
2019-01-16T03:12:18.205Z,100596.02
2019-01-16T03:14:48.233Z,100587.11
2019-01-16T03:17:20.848Z,100581.64
2019-01-16T03:19:53.491Z,100579.25
2019-01-16T03:22:25.842Z,100574.12
2019-01-16T03:24:55.769Z,100582.66
2019-01-16T03:27:34.362Z,100576.67
2019-01-16T03:30:04.539Z,100574.42
2019-01-16T03:32:34.486Z,100568.95
2019-01-16T03:35:04.420Z,100572.74
2019-01-16T03:37:34.355Z,100564.05
2019-01-16T03:40:04.352Z,100560.76
2019-01-16T03:42:34.610Z,100561.77
2019-01-16T03:45:04.527Z,100567.42
2019-01-16T03:47:39.865Z,100562.00
2019-01-16T03:50:13.915Z,100558.89
2019-01-16T03:52:49.881Z,100549.38
2019-01-16T03:55:22.809Z,100552.41
2019-01-16T03:57:58.616Z,100546.80
2019-01-16T04:00:37.334Z,100547.36
2019-01-16T04:03:23.615Z,100545.79
2019-01-16T04:05:53.538Z,100547.85
2019-01-16T04:08:26.176Z,100538.75
2019-01-16T04:10:56.091Z,100542.23
2019-01-16T04:13:35.079Z,100535.95
2019-01-16T04:16:07.885Z,100525.95
2019-01-16T04:18:53.981Z,100526.00
2019-01-16T04:21:26.576Z,100524.20
2019-01-16T04:24:14.436Z,100523.16
2019-01-16T04:26:44.361Z,100520.31
2019-01-16T04:29:29.957Z,100511.78
2019-01-16T04:32:05.658Z,100506.92
2019-01-16T04:34:44.475Z,100505.98
2019-01-16T04:37:23.144Z,100506.47
2019-01-16T04:39:53.092Z,100502.27
2019-01-16T04:42:23.013Z,100497.03
2019-01-16T04:44:55.870Z,100498.23
2019-01-16T04:47:28.506Z,100492.81
2019-01-16T04:50:10.489Z,100490.53
2019-01-16T04:52:49.114Z,100493.97
2019-01-16T04:55:19.048Z,100492.45
2019-01-16T04:57:51.937Z,100489.15
2019-01-16T05:00:21.869Z,100483.28
2019-01-16T05:02:54.520Z,100476.80
2019-01-16T05:05:30.395Z,100477.84
2019-01-16T05:08:15.156Z,100485.97
2019-01-16T05:10:47.764Z,100472.05
2019-01-16T05:13:33.673Z,100461.84
2019-01-16T05:16:06.020Z,100474.59
2019-01-16T05:18:44.780Z,100477.22
2019-01-16T05:21:23.556Z,100482.52
2019-01-16T05:24:02.285Z,100483.50
2019-01-16T05:26:32.213Z,100477.14
2019-01-16T05:29:18.522Z,100474.52
2019-01-16T05:31:50.893Z,100474.03
2019-01-16T05:34:38.712Z,100462.33
2019-01-16T05:37:17.157Z,100460.67
2019-01-16T05:39:47.117Z,100455.70
2019-01-16T05:42:17.052Z,100446.05
2019-01-16T05:44:49.717Z,100448.16
2019-01-16T05:47:19.658Z,100449.84
2019-01-16T05:50:07.685Z,100444.72
2019-01-16T05:52:37.608Z,100440.30
2019-01-16T05:55:11.607Z,100423.02
2019-01-16T05:57:47.370Z,100418.48
2019-01-16T06:00:22.869Z,100416.64
2019-01-16T06:03:07.466Z,100416.16
2019-01-16T06:05:40.384Z,100428.36
2019-01-16T06:08:12.808Z,100424.77
2019-01-16T06:11:00.930Z,100422.14
2019-01-16T06:13:30.870Z,100416.57
2019-01-16T06:16:16.751Z,100415.27
2019-01-16T06:18:46.675Z,100424.13
2019-01-16T06:21:34.957Z,100420.20
2019-01-16T06:24:07.542Z,100420.50
2019-01-16T06:26:43.235Z,100422.82
2019-01-16T06:29:31.017Z,100427.16
2019-01-16T06:32:18.837Z,100419.45
2019-01-16T06:34:54.717Z,100417.24
2019-01-16T06:37:27.306Z,100414.41
2019-01-16T06:39:57.244Z,100406.77
2019-01-16T06:42:30.230Z,100409.45
2019-01-16T06:45:05.859Z,100394.59
2019-01-16T06:47:41.444Z,100404.31
2019-01-16T06:50:23.663Z,100399.08
2019-01-16T06:52:59.875Z,100395.15
2019-01-16T06:55:35.639Z,100388.94
2019-01-16T06:58:17.750Z,100380.86
2019-01-16T07:00:47.704Z,100379.06
2019-01-16T07:03:17.637Z,100370.94
2019-01-16T07:05:50.539Z,100394.02
2019-01-16T07:08:22.922Z,100386.87
2019-01-16T07:10:52.843Z,100390.04
2019-01-16T07:13:38.722Z,100390.04
2019-01-16T07:16:08.639Z,100382.03
2019-01-16T07:18:41.500Z,100376.33
2019-01-16T07:21:27.425Z,100385.50
2019-01-16T07:24:13.295Z,100382.24
2019-01-16T07:26:55.086Z,100385.56
2019-01-16T07:29:40.691Z,100379.98
2019-01-16T07:32:25.568Z,100376.73
2019-01-16T07:35:11.912Z,100375.57
2019-01-16T07:37:50.598Z,100376.24
2019-01-16T07:40:23.378Z,100375.75
2019-01-16T07:43:05.119Z,100379.78
2019-01-16T07:45:35.083Z,100382.03
2019-01-16T07:48:21.329Z,100379.78
2019-01-16T07:50:51.275Z,100387.82
2019-01-16T07:53:21.196Z,100391.62
2019-01-16T07:56:07.396Z,100392.02
2019-01-16T07:58:39.760Z,100397.08
2019-01-16T08:01:09.683Z,100386.60
2019-01-16T08:03:55.554Z,100391.29
2019-01-16T08:06:31.203Z,100387.76
2019-01-16T08:09:19.259Z,100390.59
2019-01-16T08:12:00.969Z,100390.38
2019-01-16T08:14:47.110Z,100391.56
2019-01-16T08:17:19.754Z,100392.17
2019-01-16T08:19:58.464Z,100394.52
2019-01-16T08:22:40.428Z,100396.23
2019-01-16T08:25:25.377Z,100398.12
2019-01-16T08:28:11.392Z,100400.25
2019-01-16T08:30:41.585Z,100405.22
2019-01-16T08:33:16.927Z,100407.14
2019-01-16T08:35:49.484Z,100416.59
2019-01-16T08:38:28.541Z,100416.47
2019-01-16T08:41:10.442Z,100405.62
2019-01-16T08:43:55.155Z,100415.70
2019-01-16T08:46:40.141Z,100404.73
2019-01-16T08:49:22.071Z,100404.80
2019-01-16T08:51:57.794Z,100397.48
2019-01-16T08:54:27.724Z,100399.89
2019-01-16T08:57:13.330Z,100397.42
2019-01-16T08:59:49.104Z,100403.05
2019-01-16T09:02:33.904Z,100406.66
2019-01-16T09:05:19.817Z,100409.34
2019-01-16T09:07:49.763Z,100407.14
2019-01-16T09:10:22.580Z,100404.19
2019-01-16T09:12:52.511Z,100397.63
2019-01-16T09:15:37.285Z,100390.98
2019-01-16T09:18:07.462Z,100385.89
2019-01-16T09:20:40.156Z,100378.84
2019-01-16T09:23:18.181Z,100375.73
2019-01-16T09:26:05.959Z,100378.36
2019-01-16T09:28:39.186Z,100373.67
2019-01-16T09:31:17.962Z,100362.09
2019-01-16T09:33:47.879Z,100367.39
2019-01-16T09:36:26.560Z,100359.31
2019-01-16T09:39:11.360Z,100368.20
2019-01-16T09:41:41.552Z,100362.30
2019-01-16T09:44:14.145Z,100358.27
2019-01-16T09:46:50.320Z,100350.01
2019-01-16T09:49:26.146Z,100351.38
2019-01-16T09:52:25.506Z,100349.02
2019-01-16T09:55:04.522Z,100335.74
2019-01-16T09:57:50.457Z,100346.74
2019-01-16T10:00:36.712Z,100332.13
2019-01-16T10:03:09.068Z,100329.98
2019-01-16T10:05:56.937Z,100325.97
2019-01-16T10:08:29.900Z,100327.36
2019-01-16T10:11:05.666Z,100319.11
2019-01-16T10:13:38.083Z,100327.42
2019-01-16T10:16:26.187Z,100335.67
2019-01-16T10:19:11.891Z,100328.52
2019-01-16T10:21:56.656Z,100336.62
2019-01-16T10:24:26.631Z,100326.43
2019-01-16T10:27:12.416Z,100333.88
2019-01-16T10:29:45.120Z,100331.67
2019-01-16T10:32:17.820Z,100321.83
2019-01-16T10:35:05.401Z,100314.64
2019-01-16T10:37:41.007Z,100313.14
2019-01-16T10:40:29.018Z,100314.33
2019-01-16T10:43:01.671Z,100312.66
2019-01-16T10:45:31.625Z,100296.14
2019-01-16T10:48:04.615Z,100293.88
2019-01-16T10:50:52.489Z,100289.50
2019-01-16T10:53:40.566Z,100292.04
2019-01-16T10:56:26.453Z,100281.19
2019-01-16T10:59:04.989Z,100276.39
2019-01-16T11:01:37.965Z,100283.39
2019-01-16T11:04:25.948Z,100283.22
2019-01-16T11:07:01.566Z,100270.89
2019-01-16T11:09:46.316Z,100267.16
2019-01-16T11:12:16.258Z,100266.34
2019-01-16T11:15:02.411Z,100266.95
2019-01-16T11:17:48.528Z,100262.97
2019-01-16T11:20:21.221Z,100259.66
2019-01-16T11:22:57.068Z,100249.90
2019-01-16T11:25:32.912Z,100255.92
2019-01-16T11:28:11.387Z,100256.05
2019-01-16T11:30:58.889Z,100245.56
2019-01-16T11:33:44.777Z,100244.92
2019-01-16T11:36:29.255Z,100218.97
2019-01-16T11:39:11.237Z,100226.01
2019-01-16T11:41:43.932Z,100217.70
2019-01-16T11:44:25.445Z,100215.78
2019-01-16T11:46:55.391Z,100208.86
2019-01-16T11:49:28.240Z,100202.80
2019-01-16T11:52:03.868Z,100206.31
2019-01-16T11:54:45.592Z,100198.00
2019-01-16T11:57:18.433Z,100202.27
2019-01-16T12:00:00.471Z,100200.58
2019-01-16T12:02:47.049Z,100184.41
2019-01-16T12:05:25.621Z,100179.94
2019-01-16T12:08:07.440Z,100189.61
2019-01-16T12:10:53.668Z,100174.20
2019-01-16T12:13:39.213Z,100179.45
2019-01-16T12:16:09.166Z,100182.19
2019-01-16T12:18:50.992Z,100176.74
2019-01-16T12:21:29.590Z,100170.68
2019-01-16T12:24:07.953Z,100166.55
2019-01-16T12:26:43.568Z,100169.41
2019-01-16T12:29:18.952Z,100166.74
2019-01-16T12:31:51.636Z,100166.30
2019-01-16T12:34:27.289Z,100167.28
2019-01-16T12:36:59.980Z,100157.20
2019-01-16T12:39:30.164Z,100160.39
2019-01-16T12:42:06.081Z,100142.17
2019-01-16T12:44:39.221Z,100135.23
2019-01-16T12:47:20.920Z,100124.59
2019-01-16T12:49:56.376Z,100118.13
2019-01-16T12:52:29.225Z,100114.98
2019-01-16T12:55:02.121Z,100105.77
2019-01-16T12:57:37.745Z,100105.47
2019-01-16T13:00:31.989Z,100099.77
2019-01-16T13:03:04.365Z,100096.48
2019-01-16T13:05:34.302Z,100090.97
2019-01-16T13:08:06.950Z,100078.48
2019-01-16T13:10:42.532Z,100079.27
2019-01-16T13:13:24.009Z,100067.38
2019-01-16T13:16:06.293Z,100065.09
2019-01-16T13:18:36.248Z,100068.00
2019-01-16T13:21:23.007Z,100062.47
2019-01-16T13:24:10.856Z,100055.39
2019-01-16T13:26:56.469Z,100050.47
2019-01-16T13:29:26.425Z,100072.64
2019-01-16T13:32:11.387Z,100061.31
2019-01-16T13:34:41.342Z,100060.00
2019-01-16T13:37:20.034Z,100044.14
2019-01-16T13:39:56.305Z,100027.44
2019-01-16T13:42:26.501Z,100031.60
2019-01-16T13:45:12.620Z,100040.77
2019-01-16T13:47:42.781Z,100032.25
2019-01-16T13:50:26.620Z,100035.53
2019-01-16T13:53:12.559Z,100005.33
2019-01-16T13:55:51.275Z,100027.41
2019-01-16T13:58:21.744Z,100023.92
2019-01-16T14:00:54.341Z,100017.70
2019-01-16T14:03:27.203Z,100015.05
2019-01-16T14:05:57.144Z,100017.05
2019-01-16T14:08:27.076Z,99993.14
2019-01-16T14:11:09.258Z,99987.41
2019-01-16T14:13:41.843Z,99964.09
2019-01-16T14:16:12.021Z,99964.38
2019-01-16T14:18:57.993Z,99969.20
2019-01-16T14:21:30.607Z,99968.58
2019-01-16T14:24:02.986Z,99965.72
2019-01-16T14:26:32.927Z,99962.47
2019-01-16T14:29:11.547Z,99966.89
2019-01-16T14:31:37.723Z,99971.48
2019-01-16T14:34:24.188Z,99960.28
2019-01-16T14:36:56.537Z,99962.22
2019-01-16T14:39:44.067Z,99947.70
2019-01-16T14:42:19.794Z,99950.87
2019-01-16T14:45:07.865Z,99956.90
2019-01-16T14:47:40.682Z,99929.48
2019-01-16T14:50:26.706Z,99931.29
2019-01-16T14:52:59.358Z,99936.04
2019-01-16T14:55:37.967Z,99942.07
2019-01-16T14:58:08.887Z,99942.23
2019-01-16T15:00:54.718Z,99940.86
2019-01-16T15:03:33.132Z,99936.22
2019-01-16T15:06:19.249Z,99930.62
2019-01-16T15:09:01.250Z,99933.73
2019-01-16T15:11:39.749Z,99919.78
2019-01-16T15:14:22.885Z,99920.70
2019-01-16T15:16:58.571Z,99920.17
2019-01-16T15:19:44.272Z,99913.92
2019-01-16T15:22:30.834Z,99907.90
2019-01-16T15:25:15.704Z,99898.27
2019-01-16T15:27:45.902Z,99902.14
2019-01-16T15:30:17.072Z,99907.34
2019-01-16T15:32:55.688Z,99905.02
2019-01-16T15:35:28.332Z,99907.83
2019-01-16T15:37:58.267Z,99912.61
2019-01-16T15:40:30.742Z,99909.83
2019-01-16T15:43:15.557Z,99909.34
2019-01-16T15:45:45.491Z,99903.12
2019-01-16T15:48:18.192Z,99890.67
2019-01-16T15:50:54.047Z,99888.52
2019-01-16T15:53:32.543Z,99887.56
2019-01-16T15:56:05.411Z,99880.83
2019-01-16T15:58:38.256Z,99875.59
2019-01-16T16:01:24.058Z,99869.86
2019-01-16T16:03:59.546Z,99872.48
2019-01-16T16:06:29.706Z,99864.30
2019-01-16T16:09:15.539Z,99866.55
2019-01-16T16:11:45.710Z,99847.56
2019-01-16T16:14:24.469Z,99848.38
2019-01-16T16:16:54.703Z,99841.54
2019-01-16T16:19:30.393Z,99837.42
2019-01-16T16:22:03.247Z,99827.46
2019-01-16T16:24:38.643Z,99827.98
2019-01-16T16:27:24.761Z,99819.01
2019-01-16T16:30:06.543Z,99814.26
2019-01-16T16:32:48.499Z,99806.08
2019-01-16T16:35:30.321Z,99809.64
2019-01-16T16:38:02.995Z,99820.13
2019-01-16T16:40:45.060Z,99798.52
2019-01-16T16:55:30.882Z,99776.39
2019-01-16T16:58:18.317Z,99779.99
2019-01-16T17:03:58.878Z,99777.19
2019-01-16T17:06:46.291Z,99768.81
2019-01-16T17:09:53.105Z,99768.12
2019-01-16T17:12:40.524Z,99770.72
2019-01-16T17:15:48.907Z,99768.59
2019-01-16T17:18:39.677Z,99761.23
2019-01-16T17:24:38.039Z,99768.08
2019-01-16T17:32:43.781Z,99758.59
2019-01-16T17:35:50.566Z,99747.13
2019-01-16T17:38:37.998Z,99734.36
2019-01-16T17:41:25.401Z,99733.73
2019-01-16T17:44:12.835Z,99728.83
2019-01-16T17:50:05.182Z,99726.20
2019-01-16T17:55:41.558Z,99730.80
2019-01-16T17:58:48.304Z,99719.02
2019-01-16T18:01:35.978Z,99717.52
2019-01-16T18:10:49.566Z,99718.03
2019-01-16T18:13:36.987Z,99719.17
2019-01-16T18:16:45.324Z,99709.05
2019-01-16T18:19:32.742Z,99708.23
2019-01-16T18:22:20.161Z,99705.27
2019-01-16T18:28:20.389Z,99691.83
2019-01-16T18:34:16.399Z,99683.67
2019-01-16T18:42:28.362Z,99686.78
2019-01-16T18:45:35.166Z,99675.00
2019-01-16T18:48:22.588Z,99674.50
2019-01-16T18:51:10.012Z,99669.41
2019-01-16T18:53:57.435Z,99674.80
2019-01-16T18:56:45.123Z,99675.95
2019-01-16T18:59:32.525Z,99673.35
2019-01-16T19:02:19.959Z,99673.84
2019-01-16T19:05:27.353Z,99665.85
2019-01-16T19:08:14.775Z,99668.96
2019-01-16T19:11:21.567Z,99679.57
2019-01-16T19:14:09.247Z,99670.73
2019-01-16T19:16:56.665Z,99675.02
2019-01-16T19:19:44.102Z,99662.73
2019-01-16T19:27:59.535Z,99659.91
2019-01-16T19:33:26.264Z,99645.80
2019-01-16T19:36:13.687Z,99668.36
2019-01-16T19:39:01.090Z,99661.95
2019-01-16T19:45:03.307Z,99645.94
2019-01-16T19:47:50.732Z,99635.66
2019-01-16T19:50:38.409Z,99642.39
2019-01-16T19:53:25.835Z,99628.48
2019-01-16T19:56:13.239Z,99620.13
2019-01-16T19:59:00.743Z,99628.97
2019-01-16T20:04:56.492Z,99612.09
2019-01-16T20:08:05.058Z,99601.62
2019-01-16T20:11:11.872Z,99597.20
2019-01-16T20:16:48.268Z,99615.30
2019-01-16T20:19:55.047Z,99602.69
2019-01-16T20:22:42.474Z,99600.21
2019-01-16T20:25:29.879Z,99595.67
2019-01-16T20:28:17.302Z,99580.98
2019-01-16T20:31:04.709Z,99575.43
2019-01-16T20:33:52.143Z,99572.48
2019-01-16T20:36:39.812Z,99564.76
2019-01-16T20:39:48.161Z,99564.90
2019-01-16T20:42:35.833Z,99574.41
2019-01-16T20:45:44.189Z,99563.28
2019-01-16T20:48:31.878Z,99565.59
2019-01-16T20:53:54.578Z,99556.78
2019-01-16T21:01:56.495Z,99541.88
2019-01-16T21:04:43.946Z,99547.25
2019-01-16T21:07:31.398Z,99547.38
2019-01-16T21:13:27.230Z,99538.08
2019-01-16T21:16:14.631Z,99537.59
2019-01-16T21:21:41.133Z,99536.67
2019-01-16T21:29:58.787Z,99530.31
2019-01-16T21:33:10.485Z,99529.95
2019-01-16T21:38:30.178Z,99519.80
2019-01-16T21:41:17.867Z,99523.58
2019-01-16T21:44:05.288Z,99519.80
2019-01-16T21:47:14.502Z,99519.46
2019-01-16T21:50:02.185Z,99518.46
2019-01-16T21:56:21.536Z,99503.39
2019-01-16T21:59:08.972Z,99498.82
2019-01-16T22:08:01.442Z,99488.35
2019-01-16T22:11:08.237Z,99484.76
2019-01-16T22:13:55.658Z,99483.80
2019-01-16T22:30:14.197Z,99462.18
2019-01-16T22:35:50.825Z,99469.05
2019-01-16T22:44:22.918Z,99466.29
2019-01-16T22:55:50.930Z,99465.80
2019-01-16T22:58:38.368Z,99457.95
2019-01-16T23:01:46.936Z,99446.97
2019-01-16T23:04:34.626Z,99447.30
2019-01-16T23:07:22.028Z,99442.69
2019-01-16T23:10:09.697Z,99450.72
2019-01-16T23:12:57.355Z,99449.73
2019-01-16T23:15:44.800Z,99442.38
2019-01-16T23:21:40.889Z,99448.41
2019-01-16T23:24:28.308Z,99441.67
2019-01-16T23:27:15.740Z,99436.13
2019-01-16T23:39:01.618Z,99430.08
2019-01-16T23:41:49.027Z,99423.17
2019-01-16T23:47:46.897Z,99421.86
2019-01-16T23:50:34.309Z,99425.65
2019-01-16T23:53:21.743Z,99433.81
2019-01-16T23:56:09.162Z,99425.78
